Карточка аэропорта URSS

Внимание!
Информация на этой странице в стадии наполнения.
Если вы не увидели какой-то информации, или заметили неточность - пожалуйста сообщите нам!
Спасибо!
Команда RU-STAFF
Название аэропортаСочи
Название аэропорта (англ.)Sochi
Превышение89 ft. (27.1 m.)
Координаты43°26.634', 39°56.55'
Высота перехода13000 ft
Эшелон переходаQNH>=977hPa: FL150; QNH<977hPa: FL160
Коды ответчика1060-1077
Зона ОрВДРостов-на-Дону РПИ (URRV)
Данные METARURSS 172030Z 30002MPS 9999 BKN073 22/19 Q1016 R02/010070 R06/010070 NOSIG RMK R06/34002MPS QFE760
Проноз погоды (TAF)URSS 171955Z 1721/1821 05003G08MPS 9999 BKN100 BECMG 1805/1806 25004G09MPS FEW030 BECMG 1809/1810 28005G10MPS FEW030TCU BECMG 1817/1818 05003G08MPS SCT010 BKN030
NOTAMshow/hide NOTAM
AWOS   TABLE

Информация о ВПП

ВПП Длина ВПП (м.) Покрытие Курс ВПП Частота ILS
242890Цементобетон238 
202500Цементобетон202 
022500Цементобетон22110.5
062890Цементобетон58111.1

Диспетчерские позиции

Позывной Наименование органа УВД Частота
URSS_DELСочи-Деливери132.700
URSS_APPСочи-Подход124.600
URSS_TWRСочи-Старт121.200
URSS_R_APPСочи-Круг119.700
URSS_GNDСочи-Руление119.000
URSSFM1119.000



Спутниковое изображение